| time (UTC) | temp C | wind direction | speed KPH | gust KPH | rain 1hr cm | rain 24hr cm | rain mn cm | humidity % | barometer mb |
| 20260507213510 | 24 | 82 | 16.1 | 17.7 | 0.00 | 0.00 | 0.00 | 80 | 1017.9 |
| 20260507213007 | 24 | 138 | 9.7 | 12.9 | 0.00 | 0.00 | 0.00 | 80 | 1017.5 |
| 20260507212502 | 24 | 118 | 9.7 | 11.3 | 0.00 | 0.00 | 0.00 | 79 | 1017.7 |
| 20260507211959 | 24 | 128 | 6.4 | 11.3 | 0.00 | 0.00 | 0.00 | 79 | 1017.7 |
| 20260507211456 | 24 | 75 | 3.2 | 6.4 | 0.00 | 0.00 | 0.00 | 79 | 1017.7 |
| 20260507210952 | 24 | 152 | 6.4 | 9.7 | 0.00 | 0.00 | 0.00 | 79 | 1017.8 |
| 20260507210449 | 24 | 131 | 11.3 | 12.9 | 0.00 | 0.00 | 0.00 | 79 | 1017.5 |
| 20260507205946 | 24 | 119 | 8.0 | 11.3 | 0.00 | 0.00 | 0.00 | 79 | 1017.6 |
| 20260507205443 | 25 | 145 | 11.3 | 12.9 | 0.00 | 0.00 | 0.00 | 79 | 1017.6 |
| 20260507204939 | 25 | 87 | 19.3 | 22.5 | 0.00 | 0.00 | 0.00 | 79 | 1017.6 |
| 20260507204436 | 25 | 96 | 17.7 | 22.5 | 0.00 | 0.00 | 0.00 | 80 | 1017.6 |
| 20260507203934 | 25 | 201 | 9.7 | 12.9 | 0.00 | 0.00 | 0.00 | 80 | 1017.7 |
| 20260507203431 | 25 | 163 | 8.0 | 11.3 | 0.00 | 0.00 | 0.00 | 80 | 1017.6 |
| 20260507202928 | 25 | 115 | 12.9 | 16.1 | 0.00 | 0.00 | 0.00 | 78 | 1017.5 |
| 20260507202424 | 25 | 122 | 17.7 | 20.9 | 0.00 | 0.00 | 0.00 | 78 | 1017.3 |
| 20260507201920 | 25 | 105 | 11.3 | 14.5 | 0.00 | 0.00 | 0.00 | 79 | 1017.5 |
| 20260507201415 | 25 | 187 | 4.8 | 4.8 | 0.00 | 0.00 | 0.00 | 79 | 1017.7 |
| 20260507200912 | 25 | 109 | 9.7 | 14.5 | 0.00 | 0.00 | 0.00 | 78 | 1017.6 |
| 20260507200408 | 25 | 129 | 12.9 | 16.1 | 0.00 | 0.00 | 0.00 | 78 | 1017.7 |
| 20260507195904 | 26 | 112 | 16.1 | 22.5 | 0.00 | 0.00 | 0.00 | 77 | 1017.7 |
| 20260507195402 | 26 | 97 | 8.0 | 14.5 | 0.00 | 0.00 | 0.00 | 76 | 1017.6 |
| 20260507194859 | 26 | 188 | 9.7 | 14.5 | 0.00 | 0.00 | 0.00 | 76 | 1017.6 |
| 20260507194355 | 26 | 137 | 3.2 | 6.4 | 0.00 | 0.00 | 0.00 | 76 | 1017.6 |
| 20260507193851 | 26 | 92 | 22.5 | 25.7 | 0.00 | 0.00 | 0.00 | 75 | 1017.5 |
| 20260507193349 | 26 | 90 | 9.7 | 11.3 | 0.00 | 0.00 | 0.00 | 76 | 1017.6 |
| 20260507192845 | 26 | 187 | 4.8 | 6.4 | 0.00 | 0.00 | 0.00 | 77 | 1017.8 |
| 20260507192341 | 26 | 130 | 6.4 | 11.3 | 0.00 | 0.00 | 0.00 | 78 | 1017.7 |
| 20260507191838 | 26 | 192 | 9.7 | 17.7 | 0.00 | 0.00 | 0.00 | 78 | 1017.9 |
| 20260507191334 | 26 | 128 | 6.4 | 11.3 | 0.00 | 0.00 | 0.00 | 76 | 1018.1 |
| 20260507190831 | 26 | 160 | 16.1 | 24.1 | 0.00 | 0.00 | 0.00 | 76 | 1018.1 |
| 20260507190329 | 26 | 149 | 6.4 | 11.3 | 0.00 | 0.00 | 0.00 | 76 | 1018.1 |
| 20260507185828 | 26 | 94 | 9.7 | 12.9 | 0.00 | 0.00 | 0.00 | 77 | 1018.0 |
| 20260507185324 | 26 | 172 | 14.5 | 20.9 | 0.00 | 0.00 | 0.00 | 77 | 1018.0 |
| 20260507184822 | 26 | 154 | 16.1 | 22.5 | 0.00 | 0.00 | 0.00 | 77 | 1018.0 |
| 20260507184320 | 26 | 141 | 6.4 | 6.4 | 0.00 | 0.00 | 0.00 | 77 | 1018.2 |
| 20260507183816 | 26 | 194 | 11.3 | 14.5 | 0.00 | 0.00 | 0.00 | 77 | 1018.3 |
| 20260507183313 | 27 | 158 | 9.7 | 16.1 | 0.00 | 0.00 | 0.00 | 76 | 1018.3 |
| 20260507182811 | 27 | 79 | 6.4 | 12.9 | 0.00 | 0.00 | 0.00 | 74 | 1018.4 |
| 20260507182307 | 26 | 98 | 9.7 | 11.3 | 0.00 | 0.00 | 0.00 | 76 | 1018.1 |
| 20260507181802 | 26 | 146 | 12.9 | 20.9 | 0.00 | 0.00 | 0.00 | 76 | 1018.1 |
| 20260507181259 | 26 | 97 | 17.7 | 24.1 | 0.00 | 0.00 | 0.00 | 76 | 1018.2 |
| 20260507180755 | 26 | 184 | 4.8 | 9.7 | 0.00 | 0.00 | 0.00 | 76 | 1018.4 |
| 20260507180252 | 27 | 142 | 9.7 | 14.5 | 0.00 | 0.00 | 0.00 | 75 | 1018.5 |
| 20260507175748 | 27 | 113 | 9.7 | 12.9 | 0.00 | 0.00 | 0.00 | 73 | 1018.4 |
| 20260507175245 | 27 | 192 | 17.7 | 22.5 | 0.00 | 0.00 | 0.00 | 74 | 1018.5 |
| 20260507174742 | 26 | 163 | 12.9 | 16.1 | 0.00 | 0.00 | 0.00 | 75 | 1018.7 |
| 20260507174240 | 27 | 81 | 9.7 | 14.5 | 0.00 | 0.00 | 0.00 | 73 | 1018.8 |
| 20260507173738 | 27 | 231 | 6.4 | 12.9 | 0.00 | 0.00 | 0.00 | 75 | 1018.7 |
| 20260507173234 | 26 | 61 | 8.0 | 11.3 | 0.00 | 0.00 | 0.00 | 75 | 1018.8 |
| 20260507172731 | 26 | 178 | 6.4 | 14.5 | 0.00 | 0.00 | 0.00 | 76 | 1019.0 |
| 20260507172228 | 26 | 76 | 11.3 | 16.1 | 0.00 | 0.00 | 0.00 | 75 | 1018.9 |
| 20260507171728 | 27 | 162 | 11.3 | 17.7 | 0.00 | 0.00 | 0.00 | 74 | 1019.2 |
| 20260507171226 | 27 | 107 | 6.4 | 11.3 | 0.00 | 0.00 | 0.00 | 72 | 1019.4 |
| 20260507170722 | 27 | 144 | 8.0 | 11.3 | 0.00 | 0.00 | 0.00 | 74 | 1019.2 |
| 20260507170219 | 26 | 148 | 12.9 | 17.7 | 0.00 | 0.00 | 0.00 | 75 | 1019.3 |
| 20260507165715 | 27 | 169 | 17.7 | 22.5 | 0.00 | 0.00 | 0.00 | 73 | 1019.4 |
| 20260507165211 | 27 | 80 | 3.2 | 6.4 | 0.00 | 0.00 | 0.00 | 73 | 1019.6 |
| 20260507164707 | 27 | 72 | 17.7 | 22.5 | 0.00 | 0.00 | 0.00 | 72 | 1019.6 |
| 20260507164205 | 27 | 90 | 8.0 | 11.3 | 0.00 | 0.00 | 0.00 | 74 | 1019.7 |
| 20260507163702 | 27 | 111 | 9.7 | 16.1 | 0.00 | 0.00 | 0.00 | 73 | 1019.9 |
| 20260507163159 | 26 | 111 | 3.2 | 6.4 | 0.00 | 0.00 | 0.00 | 75 | 1019.7 |
| 20260507162655 | 26 | 75 | 12.9 | 17.7 | 0.00 | 0.00 | 0.00 | 74 | 1019.9 |
| 20260507162151 | 27 | 116 | 16.1 | 22.5 | 0.00 | 0.00 | 0.00 | 74 | 1019.9 |
| 20260507161648 | 27 | 151 | 9.7 | 12.9 | 0.00 | 0.00 | 0.00 | 74 | 1020.0 |
| 20260507161144 | 26 | 116 | 12.9 | 16.1 | 0.00 | 0.00 | 0.00 | 74 | 1020.2 |
| 20260507160641 | 26 | 50 | 6.4 | 11.3 | 0.00 | 0.00 | 0.00 | 74 | 1020.1 |
| 20260507160138 | 26 | 186 | 4.8 | 4.8 | 0.00 | 0.00 | 0.00 | 75 | 1020.3 |
| 20260507155633 | 26 | 131 | 3.2 | 9.7 | 0.00 | 0.00 | 0.00 | 78 | 1020.4 |
| 20260507155130 | 26 | 175 | 8.0 | 11.3 | 0.00 | 0.00 | 0.00 | 78 | 1020.5 |
| 20260507154626 | 26 | 178 | 11.3 | 17.7 | 0.00 | 0.00 | 0.00 | 77 | 1020.3 |
| 20260507154124 | 26 | 156 | 8.0 | 12.9 | 0.00 | 0.00 | 0.00 | 76 | 1020.5 |
| 20260507153620 | 26 | 113 | 3.2 | 4.8 | 0.00 | 0.00 | 0.00 | 78 | 1020.5 |
| 20260507153117 | 25 | 99 | 12.9 | 16.1 | 0.00 | 0.00 | 0.00 | 78 | 1020.5 |
| 20260507152613 | 25 | 139 | 4.8 | 9.7 | 0.00 | 0.00 | 0.00 | 79 | 1020.5 |
| 20260507152109 | 26 | 111 | 8.0 | 12.9 | 0.00 | 0.00 | 0.00 | 77 | 1020.4 |
| 20260507151605 | 26 | 204 | 4.8 | 6.4 | 0.00 | 0.00 | 0.00 | 75 | 1020.4 |
| 20260507151103 | 26 | 141 | 11.3 | 14.5 | 0.00 | 0.00 | 0.00 | 77 | 1020.6 |
| 20260507150600 | 25 | 162 | 3.2 | 4.8 | 0.00 | 0.00 | 0.00 | 79 | 1020.5 |
| 20260507150056 | 25 | 152 | 14.5 | 16.1 | 0.00 | 0.00 | 0.00 | 78 | 1020.7 |
| 20260507145551 | 25 | 139 | 8.0 | 11.3 | 0.00 | 0.00 | 0.00 | 79 | 1020.7 |
| 20260507145049 | 25 | 140 | 14.5 | 16.1 | 0.00 | 0.00 | 0.00 | 78 | 1020.7 |
| 20260507144546 | 26 | 99 | 16.1 | 20.9 | 0.00 | 0.00 | 0.00 | 76 | 1020.7 |
| 20260507144044 | 25 | 141 | 8.0 | 9.7 | 0.00 | 0.00 | 0.00 | 79 | 1020.8 |
| 20260507143540 | 25 | 204 | 11.3 | 17.7 | 0.00 | 0.00 | 0.00 | 80 | 1020.7 |
| 20260507143038 | 25 | 139 | 9.7 | 20.9 | 0.00 | 0.00 | 0.00 | 79 | 1020.7 |
| 20260507142533 | 26 | 161 | 9.7 | 12.9 | 0.00 | 0.00 | 0.00 | 77 | 1020.5 |
| 20260507142030 | 27 | 174 | 8.0 | 12.9 | 0.00 | 0.00 | 0.00 | 73 | 1020.6 |
| 20260507141526 | 26 | 218 | 3.2 | 4.8 | 0.00 | 0.00 | 0.00 | 74 | 1020.8 |
| 20260507141023 | 26 | 112 | 9.7 | 14.5 | 0.00 | 0.00 | 0.00 | 75 | 1020.8 |
| 20260507140520 | 25 | 71 | 12.9 | 14.5 | 0.00 | 0.00 | 0.00 | 77 | 1020.7 |
| 20260507140018 | 26 | 161 | 9.7 | 12.9 | 0.00 | 0.00 | 0.00 | 77 | 1020.8 |
| 20260507135514 | 25 | 164 | 4.8 | 9.7 | 0.00 | 0.00 | 0.00 | 78 | 1020.8 |
| 20260507135011 | 25 | 177 | 3.2 | 4.8 | 0.00 | 0.00 | 0.00 | 78 | 1020.6 |
| 20260507134508 | 25 | 172 | 4.8 | 4.8 | 0.00 | 0.00 | 0.00 | 79 | 1020.7 |
| 20260507134003 | 25 | 141 | 9.7 | 17.7 | 0.00 | 0.00 | 0.00 | 78 | 1020.7 |
| 20260507133459 | 25 | 185 | 4.8 | 6.4 | 0.00 | 0.00 | 0.00 | 78 | 1020.5 |
| 20260507132958 | 25 | 124 | 4.8 | 4.8 | 0.00 | 0.00 | 0.00 | 78 | 1020.5 |
| 20260507132454 | 25 | 93 | 9.7 | 11.3 | 0.00 | 0.00 | 0.00 | 76 | 1020.5 |
| 20260507131950 | 25 | 126 | 6.4 | 6.4 | 0.00 | 0.00 | 0.00 | 77 | 1020.5 |
| 20260507131448 | 25 | 94 | 3.2 | 6.4 | 0.00 | 0.00 | 0.00 | 79 | 1020.6 |
| 20260507130944 | 25 | 154 | 3.2 | 6.4 | 0.00 | 0.00 | 0.00 | 81 | 1020.4 |
| 20260507130442 | 24 | 151 | 8.0 | 11.3 | 0.00 | 0.00 | 0.00 | 80 | 1020.5 |
| 20260507125940 | 25 | 148 | 4.8 | 6.4 | 0.00 | 0.00 | 0.00 | 80 | 1020.5 |
| 20260507125438 | 25 | 116 | 4.8 | 6.4 | 0.00 | 0.00 | 0.00 | 81 | 1020.3 |
| 20260507124935 | 24 | 166 | 4.8 | 4.8 | 0.00 | 0.00 | 0.00 | 82 | 1020.4 |
| 20260507124431 | 24 | 190 | 0.0 | 1.6 | 0.00 | 0.00 | 0.00 | 82 | 1020.3 |
| 20260507123930 | 24 | 157 | 3.2 | 4.8 | 0.00 | 0.00 | 0.00 | 83 | 1020.3 |
| 20260507123427 | 23 | 140 | 6.4 | 6.4 | 0.00 | 0.00 | 0.00 | 83 | 1020.4 |
| 20260507122923 | 24 | 115 | 3.2 | 3.2 | 0.00 | 0.00 | 0.00 | 83 | 1020.2 |
| 20260507122418 | 24 | 168 | 1.6 | 3.2 | 0.00 | 0.00 | 0.00 | 83 | 1020.1 |
| 20260507121915 | 23 | 130 | 11.3 | 12.9 | 0.00 | 0.00 | 0.00 | 84 | 1020.0 |
| 20260507121410 | 23 | 135 | 6.4 | 11.3 | 0.00 | 0.00 | 0.00 | 85 | 1019.9 |
| 20260507120907 | 23 | 82 | 6.4 | 6.4 | 0.00 | 0.00 | 0.00 | 85 | 1019.7 |
| 20260507120403 | 23 | 107 | 4.8 | 4.8 | 0.00 | 0.00 | 0.00 | 86 | 1019.7 |
| 20260507115900 | 23 | 115 | 4.8 | 4.8 | 0.00 | 0.00 | 0.00 | 86 | 1020.0 |
| 20260507115356 | 23 | 176 | 4.8 | 9.7 | 0.00 | 0.00 | 0.00 | 86 | 1019.9 |
| 20260507114851 | 23 | 109 | 6.4 | 9.7 | 0.00 | 0.00 | 0.00 | 87 | 1019.6 |
| 20260507114349 | 22 | 104 | 9.7 | 12.9 | 0.00 | 0.00 | 0.00 | 87 | 1019.9 |
| 20260507113846 | 23 | 156 | 6.4 | 9.7 | 0.00 | 0.00 | 0.00 | 87 | 1019.5 |
| 20260507113343 | 23 | 132 | 3.2 | 6.4 | 0.00 | 0.00 | 0.00 | 87 | 1019.5 |
| 20260507112840 | 23 | 111 | 3.2 | 4.8 | 0.00 | 0.00 | 0.00 | 86 | 1019.5 |
| 20260507112337 | 23 | 167 | 4.8 | 6.4 | 0.00 | 0.00 | 0.00 | 86 | 1019.6 |
| 20260507111836 | 23 | 182 | 0.0 | 0.0 | 0.00 | 0.00 | 0.00 | 85 | 1019.6 |
| 20260507111332 | 23 | 177 | 3.2 | 3.2 | 0.00 | 0.00 | 0.00 | 85 | 1019.5 |
| 20260507110828 | 23 | 184 | 1.6 | 1.6 | 0.00 | 0.00 | 0.00 | 85 | 1019.4 |
| 20260507110324 | 23 | 182 | 0.0 | 0.0 | 0.00 | 0.00 | 0.00 | 85 | 1019.3 |
| 20260507105821 | 22 | 175 | 1.6 | 3.2 | 0.00 | 0.00 | 0.00 | 85 | 1019.6 |
| 20260507105318 | 22 | 175 | 1.6 | 1.6 | 0.00 | 0.00 | 0.00 | 85 | 1019.4 |
| 20260507104815 | 22 | 157 | 0.0 | 0.0 | 0.00 | 0.00 | 0.00 | 85 | 1019.3 |
| 20260507104311 | 22 | 196 | 0.0 | 0.0 | 0.00 | 0.00 | 0.00 | 85 | 1019.2 |
| 20260507103807 | 22 | 207 | 0.0 | 0.0 | 0.00 | 0.00 | 0.00 | 85 | 1019.2 |
| 20260507103303 | 22 | 209 | 1.6 | 1.6 | 0.00 | 0.00 | 0.00 | 85 | 1019.3 |
| 20260507102800 | 22 | 218 | 0.0 | 0.0 | 0.00 | 0.00 | 0.00 | 85 | 1019.1 |
| 20260507102257 | 22 | 214 | 1.6 | 1.6 | 0.00 | 0.00 | 0.00 | 85 | 1019.0 |
| 20260507101754 | 22 | 215 | 0.0 | 0.0 | 0.00 | 0.00 | 0.00 | 85 | 1019.0 |
| 20260507101253 | 22 | 190 | 0.0 | 1.6 | 0.00 | 0.00 | 0.00 | 85 | 1018.9 |
| 20260507100751 | 22 | 192 | 1.6 | 1.6 | 0.00 | 0.00 | 0.00 | 84 | 1019.1 |
| 20260507100249 | 22 | 221 | 1.6 | 1.6 | 0.00 | 0.00 | 0.00 | 84 | 1019.0 |
| 20260507095747 | 22 | 211 | 0.0 | 0.0 | 0.00 | 0.00 | 0.00 | 84 | 1019.1 |
| 20260507095243 | 22 | 191 | 1.6 | 3.2 | 0.00 | 0.00 | 0.00 | 84 | 1019.1 |
| 20260507094740 | 22 | 178 | 3.2 | 3.2 | 0.00 | 0.00 | 0.00 | 83 | 1019.1 |
| 20260507094237 | 22 | 60 | 4.8 | 9.7 | 0.00 | 0.00 | 0.00 | 84 | 1019.1 |
| 20260507093734 | 22 | 116 | 4.8 | 6.4 | 0.00 | 0.00 | 0.00 | 84 | 1019.0 |
| 20260507093232 | 22 | 67 | 6.4 | 14.5 | 0.00 | 0.00 | 0.00 | 84 | 1019.0 |
| 20260507092730 | 22 | 167 | 3.2 | 3.2 | 0.00 | 0.00 | 0.00 | 84 | 1019.0 |
| 20260507092225 | 22 | 115 | 4.8 | 4.8 | 0.00 | 0.00 | 0.00 | 84 | 1019.0 |
| 20260507091722 | 22 | 80 | 3.2 | 3.2 | 0.00 | 0.00 | 0.00 | 85 | 1019.0 |
| 20260507091219 | 22 | 151 | 3.2 | 3.2 | 0.00 | 0.00 | 0.00 | 86 | 1018.9 |
| 20260507090719 | 22 | 91 | 6.4 | 6.4 | 0.00 | 0.00 | 0.00 | 85 | 1019.1 |
| 20260507090216 | 22 | 156 | 3.2 | 3.2 | 0.00 | 0.00 | 0.00 | 85 | 1019.0 |
| 20260507085713 | 22 | 89 | 6.4 | 6.4 | 0.00 | 0.00 | 0.00 | 85 | 1019.1 |
| 20260507085210 | 22 | 103 | 3.2 | 4.8 | 0.00 | 0.00 | 0.00 | 85 | 1019.1 |
| 20260507084707 | 22 | 102 | 3.2 | 3.2 | 0.00 | 0.00 | 0.00 | 85 | 1019.1 |
| 20260507084203 | 22 | 90 | 6.4 | 6.4 | 0.00 | 0.00 | 0.00 | 85 | 1019.0 |
| 20260507083701 | 22 | 86 | 11.3 | 12.9 | 0.00 | 0.00 | 0.00 | 85 | 1018.8 |
| 20260507083157 | 22 | 111 | 9.7 | 11.3 | 0.00 | 0.00 | 0.00 | 85 | 1018.7 |
| 20260507082653 | 22 | 110 | 8.0 | 11.3 | 0.00 | 0.00 | 0.00 | 84 | 1018.9 |
| 20260507082149 | 22 | 84 | 6.4 | 11.3 | 0.00 | 0.00 | 0.00 | 84 | 1018.8 |
| 20260507081647 | 22 | 105 | 8.0 | 9.7 | 0.00 | 0.00 | 0.00 | 84 | 1019.0 |
| 20260507081143 | 22 | 104 | 3.2 | 3.2 | 0.00 | 0.00 | 0.00 | 84 | 1018.9 |
| 20260507080639 | 22 | 100 | 6.4 | 6.4 | 0.00 | 0.00 | 0.00 | 84 | 1018.8 |
| 20260507080136 | 22 | 165 | 4.8 | 9.7 | 0.00 | 0.00 | 0.00 | 85 | 1018.8 |
| 20260507075631 | 22 | 177 | 1.6 | 3.2 | 0.00 | 0.00 | 0.00 | 85 | 1018.9 |
| 20260507075127 | 22 | 102 | 3.2 | 3.2 | 0.00 | 0.00 | 0.00 | 85 | 1018.7 |
| 20260507074624 | 22 | 94 | 8.0 | 9.7 | 0.00 | 0.00 | 0.00 | 85 | 1018.7 |
| 20260507074122 | 22 | 84 | 12.9 | 14.5 | 0.00 | 0.00 | 0.00 | 85 | 1018.8 |
| 20260507073618 | 22 | 127 | 3.2 | 3.2 | 0.00 | 0.00 | 0.00 | 85 | 1018.9 |
| 20260507073115 | 22 | 80 | 4.8 | 6.4 | 0.00 | 0.00 | 0.00 | 85 | 1019.1 |
| 20260507072613 | 22 | 97 | 3.2 | 9.7 | 0.00 | 0.00 | 0.00 | 85 | 1019.0 |
| 20260507072109 | 22 | 97 | 14.5 | 16.1 | 0.00 | 0.00 | 0.00 | 85 | 1018.9 |
| 20260507071607 | 22 | 92 | 9.7 | 9.7 | 0.00 | 0.00 | 0.00 | 86 | 1019.1 |
| 20260507071103 | 22 | 74 | 8.0 | 9.7 | 0.00 | 0.00 | 0.00 | 85 | 1019.1 |
| 20260507070600 | 22 | 86 | 6.4 | 6.4 | 0.00 | 0.00 | 0.00 | 86 | 1019.2 |
| 20260507070057 | 22 | 131 | 4.8 | 4.8 | 0.00 | 0.00 | 0.00 | 85 | 1019.1 |
| 20260507065553 | 22 | 160 | 3.2 | 4.8 | 0.00 | 0.00 | 0.00 | 85 | 1019.1 |
| 20260507065051 | 22 | 120 | 6.4 | 6.4 | 0.00 | 0.00 | 0.00 | 85 | 1019.2 |
| 20260507064549 | 22 | 188 | 0.0 | 0.0 | 0.00 | 0.00 | 0.00 | 85 | 1019.2 |
| 20260507064047 | 22 | 196 | 0.0 | 0.0 | 0.00 | 0.00 | 0.00 | 85 | 1019.3 |
| 20260507063544 | 22 | 146 | 6.4 | 6.4 | 0.00 | 0.00 | 0.00 | 85 | 1019.4 |
| 20260507063041 | 22 | 75 | 6.4 | 11.3 | 0.00 | 0.00 | 0.00 | 85 | 1019.2 |
| 20260507062538 | 22 | 89 | 4.8 | 6.4 | 0.00 | 0.00 | 0.00 | 85 | 1019.3 |
| 20260507062035 | 22 | 109 | 3.2 | 4.8 | 0.00 | 0.00 | 0.00 | 85 | 1019.5 |
| 20260507061533 | 23 | 164 | 3.2 | 4.8 | 0.00 | 0.00 | 0.00 | 84 | 1019.7 |
| 20260507061031 | 22 | 114 | 19.3 | 22.5 | 0.00 | 0.00 | 0.00 | 85 | 1019.7 |
| 20260507060529 | 22 | 94 | 9.7 | 9.7 | 0.00 | 0.00 | 0.00 | 85 | 1019.7 |
| 20260507060025 | 22 | 98 | 9.7 | 11.3 | 0.00 | 0.00 | 0.00 | 84 | 1019.6 |
| 20260507055525 | 22 | 154 | 6.4 | 6.4 | 0.00 | 0.00 | 0.00 | 84 | 1019.9 |
| 20260507055022 | 22 | 107 | 9.7 | 11.3 | 0.00 | 0.00 | 0.00 | 84 | 1019.9 |
| 20260507054518 | 22 | 91 | 9.7 | 11.3 | 0.00 | 0.00 | 0.00 | 84 | 1019.9 |
| 20260507054015 | 22 | 86 | 9.7 | 11.3 | 0.00 | 0.00 | 0.00 | 85 | 1020.2 |
| 20260507053513 | 22 | 81 | 9.7 | 9.7 | 0.00 | 0.00 | 0.00 | 85 | 1020.3 |
| 20260507053012 | 22 | 87 | 6.4 | 11.3 | 0.00 | 0.00 | 0.00 | 84 | 1020.2 |
| 20260507052509 | 23 | 118 | 9.7 | 11.3 | 0.00 | 0.00 | 0.00 | 84 | 1020.3 |
| 20260507052005 | 22 | 95 | 9.7 | 11.3 | 0.00 | 0.00 | 0.00 | 85 | 1020.6 |
| 20260507051503 | 22 | 101 | 6.4 | 6.4 | 0.00 | 0.00 | 0.00 | 86 | 1020.5 |
| 20260507051000 | 22 | 85 | 3.2 | 4.8 | 0.00 | 0.00 | 0.00 | 87 | 1020.6 |
| 20260507050456 | 22 | 85 | 12.9 | 14.5 | 0.00 | 0.00 | 0.00 | 87 | 1020.6 |
| 20260507045953 | 22 | 133 | 3.2 | 3.2 | 0.00 | 0.00 | 0.00 | 88 | 1020.8 |
| 20260507045449 | 22 | 159 | 3.2 | 3.2 | 0.00 | 0.00 | 0.00 | 88 | 1021.0 |
| 20260507044947 | 22 | 104 | 1.6 | 3.2 | 0.00 | 0.00 | 0.00 | 88 | 1021.0 |
| 20260507044443 | 22 | 158 | 3.2 | 4.8 | 0.00 | 0.00 | 0.00 | 88 | 1021.0 |
| 20260507043940 | 21 | 191 | 0.0 | 0.0 | 0.00 | 0.00 | 0.00 | 89 | 1021.1 |
| 20260507043436 | 21 | 178 | 0.0 | 1.6 | 0.00 | 0.00 | 0.00 | 88 | 1021.3 |
| 20260507042932 | 21 | 166 | 1.6 | 1.6 | 0.00 | 0.00 | 0.00 | 88 | 1021.2 |
| 20260507042429 | 22 | 194 | 0.0 | 0.0 | 0.00 | 0.00 | 0.00 | 88 | 1021.3 |
| 20260507041925 | 22 | 186 | 1.6 | 1.6 | 0.00 | 0.00 | 0.00 | 88 | 1021.2 |
| 20260507041422 | 22 | 118 | 3.2 | 3.2 | 0.00 | 0.00 | 0.00 | 88 | 1021.4 |
| 20260507040919 | 21 | 70 | 6.4 | 6.4 | 0.00 | 0.00 | 0.00 | 89 | 1021.4 |
| 20260507040415 | 21 | 191 | 3.2 | 3.2 | 0.00 | 0.00 | 0.00 | 89 | 1021.4 |
| 20260507035911 | 21 | 183 | 1.6 | 1.6 | 0.00 | 0.00 | 0.00 | 89 | 1021.3 |
| 20260507035407 | 21 | 151 | 1.6 | 1.6 | 0.00 | 0.00 | 0.00 | 89 | 1021.5 |
| 20260507034904 | 21 | 238 | 3.2 | 3.2 | 0.00 | 0.00 | 0.00 | 89 | 1021.5 |
| 20260507034401 | 21 | 218 | 1.6 | 3.2 | 0.00 | 0.00 | 0.00 | 89 | 1021.4 |
| 20260507033859 | 21 | 194 | 0.0 | 0.0 | 0.00 | 0.00 | 0.00 | 89 | 1021.5 |
| 20260507033357 | 21 | 216 | 0.0 | 0.0 | 0.00 | 0.00 | 0.00 | 89 | 1021.4 |
| 20260507032854 | 21 | 233 | 0.0 | 0.0 | 0.00 | 0.00 | 0.00 | 89 | 1021.6 |
| 20260507032350 | 21 | 215 | 0.0 | 0.0 | 0.00 | 0.00 | 0.00 | 89 | 1021.5 |
| 20260507031846 | 21 | 194 | 0.0 | 0.0 | 0.00 | 0.00 | 0.00 | 89 | 1021.4 |
| 20260507031343 | 21 | 207 | 0.0 | 0.0 | 0.00 | 0.00 | 0.00 | 89 | 1021.5 |
| 20260507030840 | 21 | 205 | 0.0 | 0.0 | 0.00 | 0.00 | 0.00 | 89 | 1021.6 |
| 20260507030338 | 21 | 218 | 1.6 | 1.6 | 0.00 | 0.00 | 0.00 | 89 | 1021.5 |
| 20260507025834 | 21 | 221 | 1.6 | 1.6 | 0.00 | 0.00 | 0.00 | 89 | 1021.6 |
| 20260507025332 | 21 | 216 | 0.0 | 1.6 | 0.00 | 0.00 | 0.00 | 89 | 1021.6 |
| 20260507024829 | 21 | 202 | 0.0 | 0.0 | 0.00 | 0.00 | 0.00 | 89 | 1021.6 |
| 20260507024326 | 21 | 176 | 1.6 | 1.6 | 0.00 | 0.00 | 0.00 | 89 | 1021.7 |
| 20260507023822 | 21 | 152 | 1.6 | 3.2 | 0.00 | 0.00 | 0.00 | 89 | 1021.6 |
| 20260507023319 | 21 | 142 | 3.2 | 3.2 | 0.00 | 0.00 | 0.00 | 89 | 1021.7 |
| 20260507022816 | 21 | 203 | 0.0 | 0.0 | 0.00 | 0.00 | 0.00 | 88 | 1021.5 |
| 20260507022313 | 21 | 191 | 0.0 | 0.0 | 0.00 | 0.00 | 0.00 | 88 | 1021.4 |
| 20260507021809 | 21 | 194 | 0.0 | 0.0 | 0.00 | 0.00 | 0.00 | 88 | 1021.5 |
| 20260507021304 | 21 | 195 | 0.0 | 0.0 | 0.00 | 0.00 | 0.00 | 88 | 1021.6 |
| 20260507020803 | 21 | 190 | 0.0 | 0.0 | 0.00 | 0.00 | 0.00 | 88 | 1021.6 |
| 20260507020259 | 21 | 183 | 1.6 | 3.2 | 0.00 | 0.00 | 0.00 | 88 | 1021.5 |
| 20260507015756 | 22 | 195 | 0.0 | 0.0 | 0.00 | 0.00 | 0.00 | 87 | 1021.6 |
| 20260507015254 | 22 | 190 | 0.0 | 0.0 | 0.00 | 0.00 | 0.00 | 87 | 1021.6 |
| 20260507014751 | 22 | 202 | 0.0 | 0.0 | 0.00 | 0.00 | 0.00 | 87 | 1021.4 |
| 20260507014247 | 22 | 173 | 1.6 | 1.6 | 0.00 | 0.00 | 0.00 | 87 | 1021.4 |
| 20260507013743 | 22 | 189 | 0.0 | 0.0 | 0.00 | 0.00 | 0.00 | 87 | 1021.2 |
| 20260507013241 | 22 | 148 | 1.6 | 3.2 | 0.00 | 0.00 | 0.00 | 87 | 1021.3 |
| 20260507012738 | 22 | 108 | 6.4 | 9.7 | 0.00 | 0.00 | 0.00 | 87 | 1021.4 |
| 20260507012233 | 22 | 141 | 1.6 | 3.2 | 0.00 | 0.00 | 0.00 | 87 | 1021.2 |
| 20260507011732 | 22 | 191 | 0.0 | 0.0 | 0.00 | 0.00 | 0.00 | 87 | 1021.2 |
| 20260507011228 | 22 | 170 | 1.6 | 1.6 | 0.00 | 0.00 | 0.00 | 86 | 1021.2 |
| 20260507010727 | 22 | 193 | 0.0 | 0.0 | 0.00 | 0.00 | 0.00 | 86 | 1021.0 |
| 20260507010223 | 22 | 200 | 0.0 | 0.0 | 0.00 | 0.00 | 0.00 | 85 | 1021.3 |
| 20260507005721 | 22 | 195 | 0.0 | 0.0 | 0.00 | 0.00 | 0.00 | 85 | 1021.1 |
| 20260507005217 | 22 | 165 | 1.6 | 1.6 | 0.00 | 0.00 | 0.00 | 85 | 1021.0 |
| 20260507004714 | 22 | 153 | 3.2 | 3.2 | 0.00 | 0.00 | 0.00 | 85 | 1021.1 |
| 20260507004212 | 22 | 98 | 6.4 | 6.4 | 0.00 | 0.00 | 0.00 | 86 | 1021.0 |
| 20260507003708 | 22 | 110 | 4.8 | 9.7 | 0.00 | 0.00 | 0.00 | 87 | 1020.8 |
| 20260507003203 | 22 | 154 | 3.2 | 4.8 | 0.00 | 0.00 | 0.00 | 87 | 1020.9 |
| 20260507002659 | 22 | 119 | 6.4 | 9.7 | 0.00 | 0.00 | 0.00 | 87 | 1020.7 |
| 20260507002155 | 22 | 187 | 1.6 | 1.6 | 0.00 | 0.00 | 0.00 | 87 | 1020.8 |
| 20260507001652 | 22 | 186 | 1.6 | 1.6 | 0.00 | 0.00 | 0.00 | 86 | 1020.6 |
| 20260507001150 | 22 | 194 | 1.6 | 1.6 | 0.00 | 0.00 | 0.00 | 86 | 1020.7 |
| 20260507000646 | 22 | 177 | 1.6 | 1.6 | 0.00 | 0.00 | 0.00 | 86 | 1020.6 |
| 20260507000141 | 22 | 199 | 0.0 | 0.0 | 0.00 | 0.00 | 0.00 | 85 | 1020.8 |
| 20260506235639 | 22 | 201 | 0.0 | 0.0 | 0.00 | 0.00 | 0.00 | 85 | 1020.7 |
| 20260506235139 | 22 | 202 | 0.0 | 0.0 | 0.00 | 0.00 | 0.00 | 85 | 1020.6 |
| 20260506234637 | 22 | 200 | 0.0 | 0.0 | 0.00 | 0.00 | 0.00 | 85 | 1020.3 |
| 20260506234134 | 22 | 195 | 0.0 | 0.0 | 0.00 | 0.00 | 0.00 | 84 | 1020.4 |
| 20260506233631 | 23 | 194 | 1.6 | 1.6 | 0.00 | 0.00 | 0.00 | 84 | 1020.2 |
| 20260506233128 | 23 | 193 | 3.2 | 3.2 | 0.00 | 0.00 | 0.00 | 83 | 1020.3 |
| 20260506232624 | 23 | 98 | 4.8 | 4.8 | 0.00 | 0.00 | 0.00 | 82 | 1020.2 |
| 20260506232119 | 23 | 95 | 8.0 | 9.7 | 0.00 | 0.00 | 0.00 | 82 | 1020.1 |
| 20260506231617 | 23 | 130 | 6.4 | 6.4 | 0.00 | 0.00 | 0.00 | 81 | 1020.1 |
| 20260506231115 | 23 | 123 | 14.5 | 14.5 | 0.00 | 0.00 | 0.00 | 81 | 1020.0 |
| 20260506230611 | 23 | 111 | 9.7 | 11.3 | 0.00 | 0.00 | 0.00 | 82 | 1020.0 |
| 20260506230109 | 23 | 100 | 8.0 | 12.9 | 0.00 | 0.00 | 0.00 | 82 | 1019.9 |
| 20260506225605 | 23 | 109 | 9.7 | 11.3 | 0.00 | 0.00 | 0.00 | 82 | 1019.7 |
| 20260506225101 | 23 | 101 | 8.0 | 9.7 | 0.00 | 0.00 | 0.00 | 82 | 1019.7 |
| 20260506224558 | 23 | 143 | 4.8 | 6.4 | 0.00 | 0.00 | 0.00 | 82 | 1019.6 |
| 20260506224055 | 23 | 155 | 3.2 | 4.8 | 0.00 | 0.00 | 0.00 | 82 | 1019.7 |
| 20260506223551 | 23 | 180 | 3.2 | 6.4 | 0.00 | 0.00 | 0.00 | 82 | 1019.7 |
| 20260506223047 | 23 | 90 | 8.0 | 9.7 | 0.00 | 0.00 | 0.00 | 81 | 1019.4 |
| 20260506222544 | 23 | 142 | 6.4 | 9.7 | 0.00 | 0.00 | 0.00 | 80 | 1019.4 |
| 20260506222041 | 24 | 175 | 4.8 | 11.3 | 0.00 | 0.00 | 0.00 | 79 | 1019.5 |
| 20260506221538 | 24 | 151 | 8.0 | 9.7 | 0.00 | 0.00 | 0.00 | 78 | 1019.5 |
| 20260506221036 | 24 | 86 | 8.0 | 11.3 | 0.00 | 0.00 | 0.00 | 78 | 1019.3 |
| 20260506220532 | 24 | 170 | 6.4 | 9.7 | 0.00 | 0.00 | 0.00 | 78 | 1019.3 |
| 20260506220027 | 25 | 110 | 6.4 | 9.7 | 0.00 | 0.00 | 0.00 | 77 | 1019.3 |
| 20260506215525 | 24 | 147 | 9.7 | 11.3 | 0.00 | 0.00 | 0.00 | 77 | 1019.5 |
| 20260506215020 | 24 | 97 | 9.7 | 12.9 | 0.00 | 0.00 | 0.00 | 78 | 1019.3 |
| 20260506214517 | 25 | 165 | 9.7 | 12.9 | 0.00 | 0.00 | 0.00 | 78 | 1019.4 |
| 20260506214015 | 25 | 106 | 11.3 | 14.5 | 0.00 | 0.00 | 0.00 | 77 | 1019.3 |